sensor_id;sensor_type;location;lat;lon;timestamp;temperature;humidity
19930;DHT22;10127;47.780;9.606;2024-03-02T00:02:11;6.40;99.90
19930;DHT22;10127;47.780;9.606;2024-03-02T00:04:37;6.40;99.90
19930;DHT22;10127;47.780;9.606;2024-03-02T00:07:03;6.40;99.90
19930;DHT22;10127;47.780;9.606;2024-03-02T00:09:29;6.40;99.90
19930;DHT22;10127;47.780;9.606;2024-03-02T00:11:54;6.40;99.90
19930;DHT22;10127;47.780;9.606;2024-03-02T00:14:20;6.30;99.90
19930;DHT22;10127;47.780;9.606;2024-03-02T00:16:46;6.20;99.90
19930;DHT22;10127;47.780;9.606;2024-03-02T00:19:12;6.10;99.90
19930;DHT22;10127;47.780;9.606;2024-03-02T00:21:38;6.00;99.90
19930;DHT22;10127;47.780;9.606;2024-03-02T00:24:33;6.10;99.90
19930;DHT22;10127;47.780;9.606;2024-03-02T00:26:59;6.20;99.90
19930;DHT22;10127;47.780;9.606;2024-03-02T00:29:25;6.30;99.90
19930;DHT22;10127;47.780;9.606;2024-03-02T00:31:51;6.30;99.90
19930;DHT22;10127;47.780;9.606;2024-03-02T00:34:18;6.30;99.90
19930;DHT22;10127;47.780;9.606;2024-03-02T00:36:45;6.30;99.90
19930;DHT22;10127;47.780;9.606;2024-03-02T00:39:12;6.30;99.90
19930;DHT22;10127;47.780;9.606;2024-03-02T00:41:41;6.20;99.90
19930;DHT22;10127;47.780;9.606;2024-03-02T00:44:12;6.10;99.90
19930;DHT22;10127;47.780;9.606;2024-03-02T00:46:42;6.20;99.90
19930;DHT22;10127;47.780;9.606;2024-03-02T00:49:22;6.10;99.90
19930;DHT22;10127;47.780;9.606;2024-03-02T00:51:49;6.00;99.90
19930;DHT22;10127;47.780;9.606;2024-03-02T00:54:15;5.80;99.90
19930;DHT22;10127;47.780;9.606;2024-03-02T00:56:43;5.70;99.90
19930;DHT22;10127;47.780;9.606;2024-03-02T00:59:10;5.50;99.90
19930;DHT22;10127;47.780;9.606;2024-03-02T01:01:36;5.50;99.90
19930;DHT22;10127;47.780;9.606;2024-03-02T01:04:02;5.50;99.90
19930;DHT22;10127;47.780;9.606;2024-03-02T01:06:27;5.30;99.90
19930;DHT22;10127;47.780;9.606;2024-03-02T01:08:53;5.10;99.90
19930;DHT22;10127;47.780;9.606;2024-03-02T01:11:19;5.00;99.90
19930;DHT22;10127;47.780;9.606;2024-03-02T01:13:47;5.10;99.90
19930;DHT22;10127;47.780;9.606;2024-03-02T01:16:13;5.30;99.90
19930;DHT22;10127;47.780;9.606;2024-03-02T01:18:38;5.60;99.90
19930;DHT22;10127;47.780;9.606;2024-03-02T01:21:04;5.60;99.90
19930;DHT22;10127;47.780;9.606;2024-03-02T01:23:29;5.60;99.90
19930;DHT22;10127;47.780;9.606;2024-03-02T01:25:55;5.40;99.90
19930;DHT22;10127;47.780;9.606;2024-03-02T01:28:21;5.30;99.90
19930;DHT22;10127;47.780;9.606;2024-03-02T01:30:47;5.20;99.90
19930;DHT22;10127;47.780;9.606;2024-03-02T01:33:13;5.10;99.90
19930;DHT22;10127;47.780;9.606;2024-03-02T01:35:38;5.40;99.90
19930;DHT22;10127;47.780;9.606;2024-03-02T01:38:04;5.60;99.90
19930;DHT22;10127;47.780;9.606;2024-03-02T01:40:37;5.70;99.90
19930;DHT22;10127;47.780;9.606;2024-03-02T01:43:04;5.70;99.90
19930;DHT22;10127;47.780;9.606;2024-03-02T01:45:30;5.80;99.90
19930;DHT22;10127;47.780;9.606;2024-03-02T01:47:56;6.00;99.90
19930;DHT22;10127;47.780;9.606;2024-03-02T01:50:29;6.10;99.90
19930;DHT22;10127;47.780;9.606;2024-03-02T01:52:56;6.10;99.90
19930;DHT22;10127;47.780;9.606;2024-03-02T01:55:22;6.20;99.90
19930;DHT22;10127;47.780;9.606;2024-03-02T01:57:51;6.10;99.90
19930;DHT22;10127;47.780;9.606;2024-03-02T02:00:21;6.10;99.90
19930;DHT22;10127;47.780;9.606;2024-03-02T02:02:50;6.00;99.90
19930;DHT22;10127;47.780;9.606;2024-03-02T02:05:16;6.10;99.90
19930;DHT22;10127;47.780;9.606;2024-03-02T02:07:42;6.10;99.90
19930;DHT22;10127;47.780;9.606;2024-03-02T02:10:09;6.00;99.90
19930;DHT22;10127;47.780;9.606;2024-03-02T02:12:35;6.00;99.90
19930;DHT22;10127;47.780;9.606;2024-03-02T02:15:00;6.00;99.90
19930;DHT22;10127;47.780;9.606;2024-03-02T02:17:26;6.10;99.90
19930;DHT22;10127;47.780;9.606;2024-03-02T02:19:52;6.00;99.90
19930;DHT22;10127;47.780;9.606;2024-03-02T02:22:17;6.00;99.90
19930;DHT22;10127;47.780;9.606;2024-03-02T02:24:43;6.10;99.90
19930;DHT22;10127;47.780;9.606;2024-03-02T02:27:09;6.20;99.90
19930;DHT22;10127;47.780;9.606;2024-03-02T02:29:35;6.10;99.90
19930;DHT22;10127;47.780;9.606;2024-03-02T02:32:01;5.90;99.90
19930;DHT22;10127;47.780;9.606;2024-03-02T02:34:27;5.80;99.90
19930;DHT22;10127;47.780;9.606;2024-03-02T02:36:53;5.80;99.90
19930;DHT22;10127;47.780;9.606;2024-03-02T02:39:21;5.90;99.90
19930;DHT22;10127;47.780;9.606;2024-03-02T02:41:48;5.90;99.90
19930;DHT22;10127;47.780;9.606;2024-03-02T02:44:13;5.80;99.90
19930;DHT22;10127;47.780;9.606;2024-03-02T02:46:40;5.80;99.90
19930;DHT22;10127;47.780;9.606;2024-03-02T02:49:05;5.80;99.90
19930;DHT22;10127;47.780;9.606;2024-03-02T02:51:31;5.80;99.90
19930;DHT22;10127;47.780;9.606;2024-03-02T02:53:57;5.60;99.90
19930;DHT22;10127;47.780;9.606;2024-03-02T02:56:22;5.40;99.90
19930;DHT22;10127;47.780;9.606;2024-03-02T02:58:48;5.30;99.90
19930;DHT22;10127;47.780;9.606;2024-03-02T03:01:15;5.10;99.90
19930;DHT22;10127;47.780;9.606;2024-03-02T03:03:43;5.10;99.90
19930;DHT22;10127;47.780;9.606;2024-03-02T03:06:09;5.20;99.90
19930;DHT22;10127;47.780;9.606;2024-03-02T03:08:35;5.30;99.90
19930;DHT22;10127;47.780;9.606;2024-03-02T03:11:00;5.50;99.90
19930;DHT22;10127;47.780;9.606;2024-03-02T03:13:26;5.50;99.90
19930;DHT22;10127;47.780;9.606;2024-03-02T03:15:52;5.60;99.90
19930;DHT22;10127;47.780;9.606;2024-03-02T03:18:18;5.60;99.90
19930;DHT22;10127;47.780;9.606;2024-03-02T03:20:44;5.60;99.90
19930;DHT22;10127;47.780;9.606;2024-03-02T03:23:09;5.30;99.90
19930;DHT22;10127;47.780;9.606;2024-03-02T03:25:40;5.20;99.90
19930;DHT22;10127;47.780;9.606;2024-03-02T03:28:06;5.10;99.90
19930;DHT22;10127;47.780;9.606;2024-03-02T03:30:32;5.10;99.90
19930;DHT22;10127;47.780;9.606;2024-03-02T03:32:57;5.10;99.90
19930;DHT22;10127;47.780;9.606;2024-03-02T03:35:23;5.10;99.90
19930;DHT22;10127;47.780;9.606;2024-03-02T03:37:48;5.10;99.90
19930;DHT22;10127;47.780;9.606;2024-03-02T03:40:14;5.20;99.90
19930;DHT22;10127;47.780;9.606;2024-03-02T03:42:39;5.30;99.90
19930;DHT22;10127;47.780;9.606;2024-03-02T03:45:06;5.50;99.90
19930;DHT22;10127;47.780;9.606;2024-03-02T03:47:38;5.60;99.90
19930;DHT22;10127;47.780;9.606;2024-03-02T03:50:05;5.50;99.90
19930;DHT22;10127;47.780;9.606;2024-03-02T03:52:32;5.50;99.90
19930;DHT22;10127;47.780;9.606;2024-03-02T03:54:58;5.50;99.90
19930;DHT22;10127;47.780;9.606;2024-03-02T03:57:23;5.60;99.90
19930;DHT22;10127;47.780;9.606;2024-03-02T03:59:49;5.50;99.90
19930;DHT22;10127;47.780;9.606;2024-03-02T04:02:21;5.60;99.90
19930;DHT22;10127;47.780;9.606;2024-03-02T04:04:47;5.60;99.90
19930;DHT22;10127;47.780;9.606;2024-03-02T04:07:12;5.60;99.90
19930;DHT22;10127;47.780;9.606;2024-03-02T04:09:38;5.40;99.90
19930;DHT22;10127;47.780;9.606;2024-03-02T04:12:04;5.40;99.90
19930;DHT22;10127;47.780;9.606;2024-03-02T04:14:29;5.30;99.90
19930;DHT22;10127;47.780;9.606;2024-03-02T04:16:55;5.30;99.90
19930;DHT22;10127;47.780;9.606;2024-03-02T04:19:21;5.20;99.90
19930;DHT22;10127;47.780;9.606;2024-03-02T04:21:46;5.30;99.90
19930;DHT22;10127;47.780;9.606;2024-03-02T04:24:12;5.30;99.90
19930;DHT22;10127;47.780;9.606;2024-03-02T04:26:37;5.40;99.90
19930;DHT22;10127;47.780;9.606;2024-03-02T04:29:03;5.50;99.90
19930;DHT22;10127;47.780;9.606;2024-03-02T04:31:28;5.60;99.90
19930;DHT22;10127;47.780;9.606;2024-03-02T04:33:54;5.70;99.90
19930;DHT22;10127;47.780;9.606;2024-03-02T04:36:26;5.90;99.90
19930;DHT22;10127;47.780;9.606;2024-03-02T04:38:52;5.90;99.90
19930;DHT22;10127;47.780;9.606;2024-03-02T04:41:24;5.90;99.90
19930;DHT22;10127;47.780;9.606;2024-03-02T04:43:50;5.90;99.90
19930;DHT22;10127;47.780;9.606;2024-03-02T04:46:15;5.90;99.90
19930;DHT22;10127;47.780;9.606;2024-03-02T04:48:41;6.00;99.90
19930;DHT22;10127;47.780;9.606;2024-03-02T04:51:20;6.20;99.90
19930;DHT22;10127;47.780;9.606;2024-03-02T04:53:52;6.10;99.90
19930;DHT22;10127;47.780;9.606;2024-03-02T04:56:18;5.90;99.90
19930;DHT22;10127;47.780;9.606;2024-03-02T04:59:02;5.70;99.90
19930;DHT22;10127;47.780;9.606;2024-03-02T05:01:28;5.60;99.90
19930;DHT22;10127;47.780;9.606;2024-03-02T05:03:53;5.50;99.90
19930;DHT22;10127;47.780;9.606;2024-03-02T05:06:19;5.40;99.90
19930;DHT22;10127;47.780;9.606;2024-03-02T05:08:44;5.50;99.90
19930;DHT22;10127;47.780;9.606;2024-03-02T05:11:10;5.40;99.90
19930;DHT22;10127;47.780;9.606;2024-03-02T05:14:05;5.50;99.90
19930;DHT22;10127;47.780;9.606;2024-03-02T05:16:35;5.50;99.90
19930;DHT22;10127;47.780;9.606;2024-03-02T05:19:02;5.50;99.90
19930;DHT22;10127;47.780;9.606;2024-03-02T05:21:27;5.60;99.90
19930;DHT22;10127;47.780;9.606;2024-03-02T05:23:53;5.70;99.90
19930;DHT22;10127;47.780;9.606;2024-03-02T05:26:18;5.70;99.90
19930;DHT22;10127;47.780;9.606;2024-03-02T05:28:44;5.60;99.90
19930;DHT22;10127;47.780;9.606;2024-03-02T05:31:15;5.50;99.90
19930;DHT22;10127;47.780;9.606;2024-03-02T05:33:42;5.80;99.90
19930;DHT22;10127;47.780;9.606;2024-03-02T05:36:08;6.00;99.90
19930;DHT22;10127;47.780;9.606;2024-03-02T05:38:36;6.20;99.90
19930;DHT22;10127;47.780;9.606;2024-03-02T05:41:02;6.20;99.90
19930;DHT22;10127;47.780;9.606;2024-03-02T05:43:28;6.00;99.90
19930;DHT22;10127;47.780;9.606;2024-03-02T05:45:54;6.00;99.90
19930;DHT22;10127;47.780;9.606;2024-03-02T05:48:19;6.20;99.90
19930;DHT22;10127;47.780;9.606;2024-03-02T05:50:45;6.20;99.90
19930;DHT22;10127;47.780;9.606;2024-03-02T05:53:11;6.30;99.90
19930;DHT22;10127;47.780;9.606;2024-03-02T05:55:36;6.30;99.90
19930;DHT22;10127;47.780;9.606;2024-03-02T05:58:02;6.40;99.90
19930;DHT22;10127;47.780;9.606;2024-03-02T06:00:46;6.40;99.90
19930;DHT22;10127;47.780;9.606;2024-03-02T06:03:11;6.50;99.90
19930;DHT22;10127;47.780;9.606;2024-03-02T06:05:37;6.60;99.90
19930;DHT22;10127;47.780;9.606;2024-03-02T06:08:03;6.50;99.90
19930;DHT22;10127;47.780;9.606;2024-03-02T06:10:29;6.40;99.90
19930;DHT22;10127;47.780;9.606;2024-03-02T06:12:54;6.30;99.90
19930;DHT22;10127;47.780;9.606;2024-03-02T06:15:20;6.20;99.90
19930;DHT22;10127;47.780;9.606;2024-03-02T06:17:45;6.20;99.90
19930;DHT22;10127;47.780;9.606;2024-03-02T06:20:11;6.10;99.90
19930;DHT22;10127;47.780;9.606;2024-03-02T06:22:37;5.90;99.90
19930;DHT22;10127;47.780;9.606;2024-03-02T06:25:02;5.70;99.90
19930;DHT22;10127;47.780;9.606;2024-03-02T06:27:28;5.70;99.90
19930;DHT22;10127;47.780;9.606;2024-03-02T06:29:53;5.60;99.90
19930;DHT22;10127;47.780;9.606;2024-03-02T06:32:20;5.60;99.90
19930;DHT22;10127;47.780;9.606;2024-03-02T06:34:45;5.70;99.90
19930;DHT22;10127;47.780;9.606;2024-03-02T06:37:11;5.70;99.90
19930;DHT22;10127;47.780;9.606;2024-03-02T06:39:36;5.70;99.90
19930;DHT22;10127;47.780;9.606;2024-03-02T06:42:02;5.90;99.90
19930;DHT22;10127;47.780;9.606;2024-03-02T06:44:28;6.00;99.90
19930;DHT22;10127;47.780;9.606;2024-03-02T06:46:54;6.20;99.90
19930;DHT22;10127;47.780;9.606;2024-03-02T06:49:19;6.20;99.90
19930;DHT22;10127;47.780;9.606;2024-03-02T06:51:45;6.30;99.90
19930;DHT22;10127;47.780;9.606;2024-03-02T06:54:10;6.20;99.90
19930;DHT22;10127;47.780;9.606;2024-03-02T06:56:36;6.30;99.90
19930;DHT22;10127;47.780;9.606;2024-03-02T06:59:02;6.30;99.90
19930;DHT22;10127;47.780;9.606;2024-03-02T07:01:28;6.50;99.90
19930;DHT22;10127;47.780;9.606;2024-03-02T07:03:54;6.60;99.90
19930;DHT22;10127;47.780;9.606;2024-03-02T07:06:19;6.70;99.90
19930;DHT22;10127;47.780;9.606;2024-03-02T07:08:45;6.60;99.90
19930;DHT22;10127;47.780;9.606;2024-03-02T07:11:11;6.60;99.90
19930;DHT22;10127;47.780;9.606;2024-03-02T07:13:36;6.50;99.90
19930;DHT22;10127;47.780;9.606;2024-03-02T07:16:02;6.60;99.90
19930;DHT22;10127;47.780;9.606;2024-03-02T07:18:46;6.60;99.90
19930;DHT22;10127;47.780;9.606;2024-03-02T07:21:17;6.40;99.90
19930;DHT22;10127;47.780;9.606;2024-03-02T07:23:42;6.50;99.90
19930;DHT22;10127;47.780;9.606;2024-03-02T07:26:08;6.50;99.90
19930;DHT22;10127;47.780;9.606;2024-03-02T07:28:34;6.50;99.90
19930;DHT22;10127;47.780;9.606;2024-03-02T07:31:03;6.70;99.90
19930;DHT22;10127;47.780;9.606;2024-03-02T07:33:30;6.80;99.90
19930;DHT22;10127;47.780;9.606;2024-03-02T07:35:56;6.90;99.90
19930;DHT22;10127;47.780;9.606;2024-03-02T07:38:22;7.00;99.90
19930;DHT22;10127;47.780;9.606;2024-03-02T07:40:49;7.10;99.90
19930;DHT22;10127;47.780;9.606;2024-03-02T07:43:18;7.10;99.90
19930;DHT22;10127;47.780;9.606;2024-03-02T07:45:47;7.10;99.90
19930;DHT22;10127;47.780;9.606;2024-03-02T07:48:13;7.10;99.90
19930;DHT22;10127;47.780;9.606;2024-03-02T07:50:39;7.20;99.90
19930;DHT22;10127;47.780;9.606;2024-03-02T07:53:05;7.30;99.90
19930;DHT22;10127;47.780;9.606;2024-03-02T07:55:31;7.40;99.90
19930;DHT22;10127;47.780;9.606;2024-03-02T07:57:57;7.40;99.90
19930;DHT22;10127;47.780;9.606;2024-03-02T08:00:23;7.20;99.90
19930;DHT22;10127;47.780;9.606;2024-03-02T08:02:49;7.00;99.90
19930;DHT22;10127;47.780;9.606;2024-03-02T08:05:16;6.80;99.90
19930;DHT22;10127;47.780;9.606;2024-03-02T08:07:44;6.80;99.90
19930;DHT22;10127;47.780;9.606;2024-03-02T08:10:10;6.90;99.90
19930;DHT22;10127;47.780;9.606;2024-03-02T08:12:35;7.20;99.90
19930;DHT22;10127;47.780;9.606;2024-03-02T08:15:01;7.30;99.90
19930;DHT22;10127;47.780;9.606;2024-03-02T08:17:26;7.40;99.90
19930;DHT22;10127;47.780;9.606;2024-03-02T08:19:53;7.10;99.90
19930;DHT22;10127;47.780;9.606;2024-03-02T08:22:18;7.20;99.90
19930;DHT22;10127;47.780;9.606;2024-03-02T08:24:44;7.00;99.90
19930;DHT22;10127;47.780;9.606;2024-03-02T08:27:10;6.50;99.90
19930;DHT22;10127;47.780;9.606;2024-03-02T08:29:36;6.50;99.90
19930;DHT22;10127;47.780;9.606;2024-03-02T08:32:01;6.90;99.90
19930;DHT22;10127;47.780;9.606;2024-03-02T08:34:27;6.90;99.90
19930;DHT22;10127;47.780;9.606;2024-03-02T08:36:53;6.60;99.90
19930;DHT22;10127;47.780;9.606;2024-03-02T08:39:19;6.40;99.90
19930;DHT22;10127;47.780;9.606;2024-03-02T08:41:45;6.30;99.90
19930;DHT22;10127;47.780;9.606;2024-03-02T08:44:11;6.40;99.90
19930;DHT22;10127;47.780;9.606;2024-03-02T08:46:37;6.30;99.90
19930;DHT22;10127;47.780;9.606;2024-03-02T08:49:04;6.30;99.90
19930;DHT22;10127;47.780;9.606;2024-03-02T08:51:29;6.30;99.90
19930;DHT22;10127;47.780;9.606;2024-03-02T08:53:56;6.30;99.90
19930;DHT22;10127;47.780;9.606;2024-03-02T08:56:23;6.30;99.90
19930;DHT22;10127;47.780;9.606;2024-03-02T08:58:49;6.40;99.90
19930;DHT22;10127;47.780;9.606;2024-03-02T09:01:16;6.40;99.90
19930;DHT22;10127;47.780;9.606;2024-03-02T09:03:42;6.40;99.90
19930;DHT22;10127;47.780;9.606;2024-03-02T09:06:11;6.80;99.90
19930;DHT22;10127;47.780;9.606;2024-03-02T09:08:38;6.80;99.90
19930;DHT22;10127;47.780;9.606;2024-03-02T09:11:05;6.80;99.90
19930;DHT22;10127;47.780;9.606;2024-03-02T09:13:31;7.10;99.90
19930;DHT22;10127;47.780;9.606;2024-03-02T09:15:57;7.40;99.90
19930;DHT22;10127;47.780;9.606;2024-03-02T09:18:22;7.50;99.90
19930;DHT22;10127;47.780;9.606;2024-03-02T09:20:48;7.70;99.90
19930;DHT22;10127;47.780;9.606;2024-03-02T09:23:14;7.70;99.90
19930;DHT22;10127;47.780;9.606;2024-03-02T09:25:39;7.80;99.90
19930;DHT22;10127;47.780;9.606;2024-03-02T09:28:05;8.10;99.90
19930;DHT22;10127;47.780;9.606;2024-03-02T09:30:30;8.10;99.90
19930;DHT22;10127;47.780;9.606;2024-03-02T09:32:56;7.60;99.90
19930;DHT22;10127;47.780;9.606;2024-03-02T09:35:22;7.30;99.90
19930;DHT22;10127;47.780;9.606;2024-03-02T09:37:47;7.40;99.90
19930;DHT22;10127;47.780;9.606;2024-03-02T09:40:13;8.00;99.90
19930;DHT22;10127;47.780;9.606;2024-03-02T09:42:40;7.80;99.90
19930;DHT22;10127;47.780;9.606;2024-03-02T09:45:06;7.60;99.90
19930;DHT22;10127;47.780;9.606;2024-03-02T09:47:32;7.30;99.90
19930;DHT22;10127;47.780;9.606;2024-03-02T09:49:57;7.60;99.90
19930;DHT22;10127;47.780;9.606;2024-03-02T09:52:23;7.70;99.90
19930;DHT22;10127;47.780;9.606;2024-03-02T09:54:49;7.90;99.90
19930;DHT22;10127;47.780;9.606;2024-03-02T09:57:15;8.00;99.90
19930;DHT22;10127;47.780;9.606;2024-03-02T09:59:41;8.10;99.90
19930;DHT22;10127;47.780;9.606;2024-03-02T10:02:07;8.00;99.90
19930;DHT22;10127;47.780;9.606;2024-03-02T10:04:33;7.90;99.90
19930;DHT22;10127;47.780;9.606;2024-03-02T10:07:19;7.90;99.90
19930;DHT22;10127;47.780;9.606;2024-03-02T10:09:46;7.80;99.90
19930;DHT22;10127;47.780;9.606;2024-03-02T10:12:14;7.90;99.90
19930;DHT22;10127;47.780;9.606;2024-03-02T10:14:40;8.00;99.90
19930;DHT22;10127;47.780;9.606;2024-03-02T10:17:08;8.00;99.90
19930;DHT22;10127;47.780;9.606;2024-03-02T10:19:34;8.10;99.90
19930;DHT22;10127;47.780;9.606;2024-03-02T10:22:01;8.00;99.90
19930;DHT22;10127;47.780;9.606;2024-03-02T10:24:41;8.00;99.90
19930;DHT22;10127;47.780;9.606;2024-03-02T10:27:08;7.80;99.90
19930;DHT22;10127;47.780;9.606;2024-03-02T10:29:37;7.70;99.90
19930;DHT22;10127;47.780;9.606;2024-03-02T10:32:04;7.60;99.90
19930;DHT22;10127;47.780;9.606;2024-03-02T10:34:32;7.80;99.90
19930;DHT22;10127;47.780;9.606;2024-03-02T10:36:58;8.00;99.90
19930;DHT22;10127;47.780;9.606;2024-03-02T10:39:24;8.20;99.90
19930;DHT22;10127;47.780;9.606;2024-03-02T10:41:52;8.30;99.90
19930;DHT22;10127;47.780;9.606;2024-03-02T10:44:19;8.40;99.90
19930;DHT22;10127;47.780;9.606;2024-03-02T10:46:50;8.60;99.90
19930;DHT22;10127;47.780;9.606;2024-03-02T10:49:19;8.80;99.90
19930;DHT22;10127;47.780;9.606;2024-03-02T10:51:46;9.00;99.90
19930;DHT22;10127;47.780;9.606;2024-03-02T10:54:12;9.10;99.90
19930;DHT22;10127;47.780;9.606;2024-03-02T10:56:41;9.30;99.90
19930;DHT22;10127;47.780;9.606;2024-03-02T10:59:28;9.40;99.90
19930;DHT22;10127;47.780;9.606;2024-03-02T11:01:59;9.60;99.90
19930;DHT22;10127;47.780;9.606;2024-03-02T11:04:29;9.70;99.90
19930;DHT22;10127;47.780;9.606;2024-03-02T11:07:09;9.90;99.90
19930;DHT22;10127;47.780;9.606;2024-03-02T11:09:40;10.00;99.90
19930;DHT22;10127;47.780;9.606;2024-03-02T11:12:12;10.20;99.90
19930;DHT22;10127;47.780;9.606;2024-03-02T11:14:42;10.40;99.90
19930;DHT22;10127;47.780;9.606;2024-03-02T11:17:11;10.50;99.90
19930;DHT22;10127;47.780;9.606;2024-03-02T11:19:39;10.70;99.90
19930;DHT22;10127;47.780;9.606;2024-03-02T11:22:05;10.90;99.90
19930;DHT22;10127;47.780;9.606;2024-03-02T11:24:32;11.00;99.90
19930;DHT22;10127;47.780;9.606;2024-03-02T11:26:59;11.10;99.90
19930;DHT22;10127;47.780;9.606;2024-03-02T11:32:04;11.30;99.90
19930;DHT22;10127;47.780;9.606;2024-03-02T11:34:31;11.40;99.90
19930;DHT22;10127;47.780;9.606;2024-03-02T11:36:58;11.40;99.90
19930;DHT22;10127;47.780;9.606;2024-03-02T11:39:27;11.40;99.90
19930;DHT22;10127;47.780;9.606;2024-03-02T11:41:53;11.40;99.90
19930;DHT22;10127;47.780;9.606;2024-03-02T11:44:19;11.60;99.90
19930;DHT22;10127;47.780;9.606;2024-03-02T11:47:01;11.70;99.90
19930;DHT22;10127;47.780;9.606;2024-03-02T11:49:40;11.80;99.90
19930;DHT22;10127;47.780;9.606;2024-03-02T11:52:08;11.90;99.90
19930;DHT22;10127;47.780;9.606;2024-03-02T11:54:36;12.10;99.90
19930;DHT22;10127;47.780;9.606;2024-03-02T11:57:05;12.20;99.90
19930;DHT22;10127;47.780;9.606;2024-03-02T11:59:31;12.40;99.90
19930;DHT22;10127;47.780;9.606;2024-03-02T12:01:58;12.50;99.90
19930;DHT22;10127;47.780;9.606;2024-03-02T12:04:24;12.40;99.90
19930;DHT22;10127;47.780;9.606;2024-03-02T12:06:59;12.60;99.90
19930;DHT22;10127;47.780;9.606;2024-03-02T12:09:26;12.60;99.90
19930;DHT22;10127;47.780;9.606;2024-03-02T12:12:07;12.70;99.90
19930;DHT22;10127;47.780;9.606;2024-03-02T12:14:34;12.80;99.90
19930;DHT22;10127;47.780;9.606;2024-03-02T12:17:01;12.80;99.90
19930;DHT22;10127;47.780;9.606;2024-03-02T12:19:27;12.80;99.90
19930;DHT22;10127;47.780;9.606;2024-03-02T12:21:58;12.90;99.90
19930;DHT22;10127;47.780;9.606;2024-03-02T12:24:26;12.90;99.90
19930;DHT22;10127;47.780;9.606;2024-03-02T12:26:52;13.00;99.90
19930;DHT22;10127;47.780;9.606;2024-03-02T12:29:19;13.00;99.90
19930;DHT22;10127;47.780;9.606;2024-03-02T12:31:48;13.10;99.90
19930;DHT22;10127;47.780;9.606;2024-03-02T12:34:15;13.10;99.90
19930;DHT22;10127;47.780;9.606;2024-03-02T12:36:42;13.10;99.90
19930;DHT22;10127;47.780;9.606;2024-03-02T12:39:08;13.20;99.90
19930;DHT22;10127;47.780;9.606;2024-03-02T12:41:37;13.30;99.90
19930;DHT22;10127;47.780;9.606;2024-03-02T12:44:03;13.40;99.90
19930;DHT22;10127;47.780;9.606;2024-03-02T12:46:30;13.40;99.90
19930;DHT22;10127;47.780;9.606;2024-03-02T12:48:55;13.40;99.90
19930;DHT22;10127;47.780;9.606;2024-03-02T12:51:21;13.60;99.90
19930;DHT22;10127;47.780;9.606;2024-03-02T12:53:54;13.80;99.90
19930;DHT22;10127;47.780;9.606;2024-03-02T12:56:20;14.10;99.90
19930;DHT22;10127;47.780;9.606;2024-03-02T12:58:45;14.30;99.90
19930;DHT22;10127;47.780;9.606;2024-03-02T13:01:11;14.50;99.90
19930;DHT22;10127;47.780;9.606;2024-03-02T13:03:38;14.70;99.90
19930;DHT22;10127;47.780;9.606;2024-03-02T13:06:07;14.70;99.90
19930;DHT22;10127;47.780;9.606;2024-03-02T13:08:36;14.80;99.90
19930;DHT22;10127;47.780;9.606;2024-03-02T13:11:02;14.90;99.90
19930;DHT22;10127;47.780;9.606;2024-03-02T13:13:30;15.00;99.90
19930;DHT22;10127;47.780;9.606;2024-03-02T13:15:56;15.10;99.90
19930;DHT22;10127;47.780;9.606;2024-03-02T13:18:22;15.30;99.90
19930;DHT22;10127;47.780;9.606;2024-03-02T13:20:48;15.40;99.90
19930;DHT22;10127;47.780;9.606;2024-03-02T13:23:13;15.60;99.90
19930;DHT22;10127;47.780;9.606;2024-03-02T13:25:39;15.40;99.90
19930;DHT22;10127;47.780;9.606;2024-03-02T13:28:06;15.30;99.90
19930;DHT22;10127;47.780;9.606;2024-03-02T13:30:38;15.30;99.90
19930;DHT22;10127;47.780;9.606;2024-03-02T13:33:04;15.20;99.90
19930;DHT22;10127;47.780;9.606;2024-03-02T13:35:30;15.00;99.90
19930;DHT22;10127;47.780;9.606;2024-03-02T13:37:55;15.30;99.90
19930;DHT22;10127;47.780;9.606;2024-03-02T13:40:21;15.10;99.90
19930;DHT22;10127;47.780;9.606;2024-03-02T13:42:46;15.10;99.90
19930;DHT22;10127;47.780;9.606;2024-03-02T13:45:13;15.20;99.90
19930;DHT22;10127;47.780;9.606;2024-03-02T13:47:45;15.10;99.90
19930;DHT22;10127;47.780;9.606;2024-03-02T13:50:11;15.10;99.90
19930;DHT22;10127;47.780;9.606;2024-03-02T13:52:36;15.10;99.90
19930;DHT22;10127;47.780;9.606;2024-03-02T13:55:02;15.20;99.90
19930;DHT22;10127;47.780;9.606;2024-03-02T13:57:28;15.00;99.90
19930;DHT22;10127;47.780;9.606;2024-03-02T13:59:54;15.10;99.90
19930;DHT22;10127;47.780;9.606;2024-03-02T14:02:20;15.00;99.90
19930;DHT22;10127;47.780;9.606;2024-03-02T14:04:45;14.90;99.90
19930;DHT22;10127;47.780;9.606;2024-03-02T14:07:13;14.90;99.90
19930;DHT22;10127;47.780;9.606;2024-03-02T14:09:39;14.70;99.90
19930;DHT22;10127;47.780;9.606;2024-03-02T14:12:05;14.60;99.90
19930;DHT22;10127;47.780;9.606;2024-03-02T14:14:31;14.40;99.90
19930;DHT22;10127;47.780;9.606;2024-03-02T14:16:57;14.30;99.90
19930;DHT22;10127;47.780;9.606;2024-03-02T14:19:36;14.40;99.90
19930;DHT22;10127;47.780;9.606;2024-03-02T14:22:08;14.30;99.90
19930;DHT22;10127;47.780;9.606;2024-03-02T14:24:34;14.20;99.90
19930;DHT22;10127;47.780;9.606;2024-03-02T14:26:59;14.30;99.90
19930;DHT22;10127;47.780;9.606;2024-03-02T14:29:28;14.40;99.90
19930;DHT22;10127;47.780;9.606;2024-03-02T14:31:54;14.70;99.90
19930;DHT22;10127;47.780;9.606;2024-03-02T14:34:19;14.90;99.90
19930;DHT22;10127;47.780;9.606;2024-03-02T14:36:51;15.20;99.90
19930;DHT22;10127;47.780;9.606;2024-03-02T14:39:17;15.50;99.90
19930;DHT22;10127;47.780;9.606;2024-03-02T14:41:49;15.70;99.90
19930;DHT22;10127;47.780;9.606;2024-03-02T14:44:15;15.80;99.90
19930;DHT22;10127;47.780;9.606;2024-03-02T14:46:42;15.90;99.90
19930;DHT22;10127;47.780;9.606;2024-03-02T14:49:07;15.90;99.90
19930;DHT22;10127;47.780;9.606;2024-03-02T14:51:33;15.80;99.90
19930;DHT22;10127;47.780;9.606;2024-03-02T14:53:59;15.50;99.90
19930;DHT22;10127;47.780;9.606;2024-03-02T14:56:24;15.60;99.90
19930;DHT22;10127;47.780;9.606;2024-03-02T14:58:50;15.60;99.90
19930;DHT22;10127;47.780;9.606;2024-03-02T15:01:16;15.50;99.90
19930;DHT22;10127;47.780;9.606;2024-03-02T15:03:43;15.70;99.90
19930;DHT22;10127;47.780;9.606;2024-03-02T15:06:09;15.40;99.90
19930;DHT22;10127;47.780;9.606;2024-03-02T15:08:35;15.30;99.90
19930;DHT22;10127;47.780;9.606;2024-03-02T15:11:01;15.00;99.90
19930;DHT22;10127;47.780;9.606;2024-03-02T15:13:26;14.80;99.90
19930;DHT22;10127;47.780;9.606;2024-03-02T15:15:52;14.70;99.90
19930;DHT22;10127;47.780;9.606;2024-03-02T15:18:18;14.70;99.90
19930;DHT22;10127;47.780;9.606;2024-03-02T15:20:44;14.60;99.90
19930;DHT22;10127;47.780;9.606;2024-03-02T15:23:10;14.60;99.90
19930;DHT22;10127;47.780;9.606;2024-03-02T15:25:35;14.60;99.90
19930;DHT22;10127;47.780;9.606;2024-03-02T15:28:01;14.60;99.90
19930;DHT22;10127;47.780;9.606;2024-03-02T15:30:27;14.60;99.90
19930;DHT22;10127;47.780;9.606;2024-03-02T15:32:53;14.70;99.90
19930;DHT22;10127;47.780;9.606;2024-03-02T15:35:18;14.80;99.90
19930;DHT22;10127;47.780;9.606;2024-03-02T15:37:44;14.70;99.90
19930;DHT22;10127;47.780;9.606;2024-03-02T15:40:09;14.70;99.90
19930;DHT22;10127;47.780;9.606;2024-03-02T15:42:36;14.70;99.90
19930;DHT22;10127;47.780;9.606;2024-03-02T15:45:02;14.70;99.90